CTV105 WADD-WAAA
Flight info
| Callsign | CTV105 |
|---|---|
| Flight time | 0h 59m |
| Altitude | 35000 |
| Route | PEDET3A PEDET W41 LIPOT LIPOT1C |
| Aircraft | A339/H-SADE1E2E3GHIJ3J5M1P2RWXY/LB2D1 |
Departure
| Time | 2026-04-22 13:00 |
|---|---|
| Airport | Denpasar I Gusti Ngurah Rai International Airport (WADD) |
Arrival
| Time | 2026-04-22 14:00 |
|---|---|
| Airport | Sultan Hasanuddin International Airport (WAAA) |
| Time | Latitude | Longitude | Altitude | Speed | Heading |
|---|---|---|---|---|---|
| 2026-04-22 11:42 | -8.74536 | 115.16933 | 39 ft | 0 kts | 358° |
| 2026-04-22 12:43 | -8.74540 | 115.16934 | 39 ft | 3 kts | 358° |
| 2026-04-22 12:44 | -8.74567 | 115.16935 | 36 ft | 4 kts | 358° |
| 2026-04-22 12:44 | -8.74589 | 115.16935 | 37 ft | 4 kts | 358° |
| 2026-04-22 12:44 | -8.74614 | 115.16936 | 35 ft | 3 kts | 357° |
| 2026-04-22 12:44 | -8.74639 | 115.16938 | 36 ft | 4 kts | 334° |
| 2026-04-22 12:45 | -8.74660 | 115.16949 | 35 ft | 4 kts | 298° |
| 2026-04-22 12:45 | -8.74669 | 115.16972 | 34 ft | 4 kts | 271° |
| 2026-04-22 12:45 | -8.74668 | 115.17000 | 34 ft | 4 kts | 266° |
| 2026-04-22 12:45 | -8.74667 | 115.17010 | 34 ft | 0 kts | 268° |
| 2026-04-22 12:51 | -8.74667 | 115.17009 | 34 ft | 1 kts | 268° |
| 2026-04-22 12:51 | -8.74668 | 115.16990 | 34 ft | 5 kts | 268° |
| 2026-04-22 12:51 | -8.74670 | 115.16932 | 36 ft | 11 kts | 268° |
| 2026-04-22 12:51 | -8.74673 | 115.16840 | 38 ft | 15 kts | 268° |
| 2026-04-22 12:52 | -8.74677 | 115.16710 | 38 ft | 20 kts | 268° |
| 2026-04-22 12:52 | -8.74683 | 115.16605 | 36 ft | 13 kts | 266° |
| 2026-04-22 12:52 | -8.74688 | 115.16502 | 38 ft | 17 kts | 267° |
| 2026-04-22 12:52 | -8.74694 | 115.16373 | 38 ft | 20 kts | 268° |
| 2026-04-22 12:53 | -8.74699 | 115.16254 | 38 ft | 9 kts | 268° |
| 2026-04-22 12:53 | -8.74699 | 115.16229 | 38 ft | 6 kts | 268° |
| 2026-04-22 12:53 | -8.74701 | 115.16167 | 39 ft | 11 kts | 268° |
| 2026-04-22 12:53 | -8.74705 | 115.16069 | 39 ft | 16 kts | 267° |
| 2026-04-22 12:54 | -8.74711 | 115.15944 | 38 ft | 20 kts | 267° |
| 2026-04-22 12:54 | -8.74718 | 115.15789 | 38 ft | 24 kts | 267° |
| 2026-04-22 12:54 | -8.74723 | 115.15666 | 38 ft | 0 kts | 268° |
| 2026-04-22 12:55 | -8.74723 | 115.15655 | 38 ft | 4 kts | 268° |
| 2026-04-22 12:55 | -8.74724 | 115.15605 | 38 ft | 10 kts | 268° |
| 2026-04-22 12:55 | -8.74727 | 115.15526 | 38 ft | 0 kts | 268° |
| 2026-04-22 12:56 | -8.74727 | 115.15524 | 38 ft | 2 kts | 268° |
| 2026-04-22 12:57 | -8.74729 | 115.15495 | 38 ft | 10 kts | 268° |
| 2026-04-22 12:57 | -8.74748 | 115.15408 | 38 ft | 14 kts | 236° |
| 2026-04-22 12:57 | -8.74789 | 115.15396 | 37 ft | 0 kts | 174° |
| 2026-04-22 12:58 | -8.74790 | 115.15396 | 37 ft | 1 kts | 175° |
| 2026-04-22 12:58 | -8.74822 | 115.15398 | 36 ft | 9 kts | 176° |
| 2026-04-22 12:59 | -8.74882 | 115.15411 | 34 ft | 5 kts | 141° |
| 2026-04-22 12:59 | -8.74893 | 115.15455 | 35 ft | 8 kts | 99° |
| 2026-04-22 12:59 | -8.74894 | 115.15478 | 35 ft | 0 kts | 90° |
| 2026-04-22 13:00 | -8.74885 | 115.15711 | 34 ft | 78 kts | 86° |
| 2026-04-22 13:00 | -8.74853 | 115.16517 | 36 ft | 153 kts | 88° |
| 2026-04-22 13:00 | -8.74809 | 115.17720 | 421 ft | 182 kts | 87° |
| 2026-04-22 13:00 | -8.74747 | 115.19012 | 1317 ft | 180 kts | 86° |
| 2026-04-22 13:01 | -8.74660 | 115.20261 | 2250 ft | 181 kts | 86° |
| 2026-04-22 13:01 | -8.74576 | 115.21631 | 2863 ft | 200 kts | 86° |
| 2026-04-22 13:01 | -8.74505 | 115.23069 | 3371 ft | 220 kts | 86° |
| 2026-04-22 13:01 | -8.74436 | 115.24705 | 3839 ft | 239 kts | 87° |
| 2026-04-22 13:02 | -8.74370 | 115.26439 | 4221 ft | 258 kts | 87° |
| 2026-04-22 13:02 | -8.74301 | 115.28308 | 4730 ft | 267 kts | 87° |
| 2026-04-22 13:02 | -8.74229 | 115.30267 | 5441 ft | 269 kts | 87° |
| 2026-04-22 13:02 | -8.74161 | 115.32094 | 6064 ft | 273 kts | 87° |
| 2026-04-22 13:03 | -8.74088 | 115.34018 | 6704 ft | 275 kts | 87° |
| 2026-04-22 13:03 | -8.74014 | 115.35960 | 7338 ft | 278 kts | 87° |
| 2026-04-22 13:03 | -8.73940 | 115.37918 | 7967 ft | 280 kts | 87° |
| 2026-04-22 13:03 | -8.73863 | 115.39924 | 8510 ft | 285 kts | 87° |
| 2026-04-22 13:04 | -8.73788 | 115.41916 | 8605 ft | 284 kts | 87° |
| 2026-04-22 13:04 | -8.73711 | 115.43925 | 8713 ft | 285 kts | 87° |
| 2026-04-22 13:04 | -8.73636 | 115.45922 | 8822 ft | 285 kts | 87° |
| 2026-04-22 13:04 | -8.73559 | 115.47951 | 8928 ft | 285 kts | 87° |
| 2026-04-22 13:05 | -8.73400 | 115.49962 | 9033 ft | 285 kts | 77° |
| 2026-04-22 13:05 | -8.72634 | 115.51781 | 9034 ft | 286 kts | 55° |
| 2026-04-22 13:05 | -8.71280 | 115.53241 | 9019 ft | 286 kts | 43° |
| 2026-04-22 13:05 | -8.69824 | 115.54632 | 9035 ft | 287 kts | 44° |
| 2026-04-22 13:06 | -8.68387 | 115.56034 | 9394 ft | 290 kts | 44° |
| 2026-04-22 13:06 | -8.66952 | 115.57456 | 10094 ft | 289 kts | 45° |
| 2026-04-22 13:06 | -8.65495 | 115.58914 | 10415 ft | 303 kts | 45° |
| 2026-04-22 13:06 | -8.63946 | 115.60470 | 10569 ft | 322 kts | 45° |
| 2026-04-22 13:07 | -8.62321 | 115.62103 | 10757 ft | 337 kts | 45° |
| 2026-04-22 13:07 | -8.60644 | 115.63788 | 11239 ft | 342 kts | 45° |
| 2026-04-22 13:07 | -8.58950 | 115.65487 | 11790 ft | 344 kts | 45° |
| 2026-04-22 13:07 | -8.57236 | 115.67207 | 12342 ft | 347 kts | 45° |
| 2026-04-22 13:08 | -8.55626 | 115.69032 | 12852 ft | 349 kts | 53° |
| 2026-04-22 13:08 | -8.54348 | 115.71108 | 13392 ft | 352 kts | 63° |
| 2026-04-22 13:08 | -8.53410 | 115.73391 | 13885 ft | 355 kts | 70° |
| 2026-04-22 13:08 | -8.52552 | 115.75744 | 14348 ft | 357 kts | 69° |
| 2026-04-22 13:09 | -8.51671 | 115.78106 | 14590 ft | 360 kts | 69° |
| 2026-04-22 13:09 | -8.50803 | 115.80403 | 14692 ft | 360 kts | 69° |
| 2026-04-22 13:09 | -8.49895 | 115.82793 | 14783 ft | 360 kts | 69° |
| 2026-04-22 13:09 | -8.49006 | 115.85129 | 14876 ft | 361 kts | 69° |
| 2026-04-22 13:10 | -8.48091 | 115.87535 | 15026 ft | 364 kts | 69° |
| 2026-04-22 13:10 | -8.47184 | 115.89920 | 15542 ft | 364 kts | 69° |
| 2026-04-22 13:10 | -8.46283 | 115.92290 | 16005 ft | 366 kts | 69° |
| 2026-04-22 13:10 | -8.45364 | 115.94706 | 16458 ft | 369 kts | 69° |
| 2026-04-22 13:11 | -8.44440 | 115.97135 | 16893 ft | 372 kts | 69° |
| 2026-04-22 13:11 | -8.43512 | 115.99579 | 17327 ft | 374 kts | 69° |
| 2026-04-22 13:11 | -8.42576 | 116.02042 | 17777 ft | 377 kts | 69° |
| 2026-04-22 13:11 | -8.41633 | 116.04529 | 18196 ft | 380 kts | 69° |
| 2026-04-22 13:12 | -8.40685 | 116.07025 | 18584 ft | 382 kts | 69° |
| 2026-04-22 13:12 | -8.39729 | 116.09540 | 18952 ft | 385 kts | 69° |
| 2026-04-22 13:12 | -8.38768 | 116.12068 | 19332 ft | 387 kts | 69° |
| 2026-04-22 13:12 | -8.37800 | 116.14615 | 19721 ft | 390 kts | 69° |
| 2026-04-22 13:13 | -8.36826 | 116.17179 | 20101 ft | 392 kts | 68° |
| 2026-04-22 13:13 | -8.35845 | 116.19759 | 20477 ft | 395 kts | 68° |
| 2026-04-22 13:13 | -8.34855 | 116.22358 | 20880 ft | 397 kts | 68° |
| 2026-04-22 13:13 | -8.33864 | 116.24963 | 21255 ft | 399 kts | 68° |
| 2026-04-22 13:14 | -8.32864 | 116.27593 | 21654 ft | 402 kts | 68° |
| 2026-04-22 13:14 | -8.31844 | 116.30272 | 22045 ft | 405 kts | 68° |
| 2026-04-22 13:14 | -8.30832 | 116.32933 | 22450 ft | 407 kts | 68° |
| 2026-04-22 13:14 | -8.29826 | 116.35577 | 22820 ft | 410 kts | 68° |
| 2026-04-22 13:15 | -8.28801 | 116.38275 | 23219 ft | 412 kts | 68° |
| 2026-04-22 13:15 | -8.27769 | 116.40987 | 23594 ft | 415 kts | 68° |
| 2026-04-22 13:15 | -8.26729 | 116.43722 | 23930 ft | 417 kts | 68° |
| 2026-04-22 13:15 | -8.25690 | 116.46455 | 24281 ft | 419 kts | 68° |
| 2026-04-22 13:16 | -8.24639 | 116.49216 | 24625 ft | 421 kts | 68° |
| 2026-04-22 13:16 | -8.23583 | 116.51989 | 24954 ft | 423 kts | 68° |
| 2026-04-22 13:16 | -8.22299 | 116.54658 | 25248 ft | 425 kts | 57° |
| 2026-04-22 13:16 | -8.20442 | 116.56974 | 25594 ft | 426 kts | 44° |
| 2026-04-22 13:17 | -8.18104 | 116.58808 | 25931 ft | 427 kts | 31° |
| 2026-04-22 13:17 | -8.15400 | 116.60072 | 26231 ft | 431 kts | 19° |
| 2026-04-22 13:17 | -8.12464 | 116.60696 | 26548 ft | 434 kts | 6° |
| 2026-04-22 13:17 | -8.09438 | 116.60863 | 26848 ft | 436 kts | 3° |
| 2026-04-22 13:18 | -8.06401 | 116.60986 | 27150 ft | 438 kts | 3° |
| 2026-04-22 13:18 | -8.03342 | 116.61123 | 27472 ft | 440 kts | 4° |
| 2026-04-22 13:18 | -8.00278 | 116.61282 | 27782 ft | 443 kts | 4° |
| 2026-04-22 13:18 | -7.97199 | 116.61456 | 28085 ft | 444 kts | 4° |
| 2026-04-22 13:19 | -7.94096 | 116.61639 | 28396 ft | 447 kts | 4° |
| 2026-04-22 13:19 | -7.90986 | 116.61825 | 28701 ft | 449 kts | 4° |
| 2026-04-22 13:19 | -7.87851 | 116.62013 | 28985 ft | 451 kts | 4° |
| 2026-04-22 13:19 | -7.84714 | 116.62202 | 29269 ft | 453 kts | 4° |
| 2026-04-22 13:20 | -7.81561 | 116.62391 | 29567 ft | 455 kts | 4° |
| 2026-04-22 13:20 | -7.78387 | 116.62581 | 29874 ft | 457 kts | 4° |
| 2026-04-22 13:20 | -7.75204 | 116.62771 | 30144 ft | 460 kts | 4° |
| 2026-04-22 13:20 | -7.72000 | 116.62963 | 30402 ft | 462 kts | 4° |
| 2026-04-22 13:21 | -7.68781 | 116.63156 | 30671 ft | 464 kts | 4° |
| 2026-04-22 13:21 | -7.65554 | 116.63349 | 30938 ft | 466 kts | 4° |
| 2026-04-22 13:21 | -7.62307 | 116.63543 | 31215 ft | 468 kts | 4° |
| 2026-04-22 13:21 | -7.59048 | 116.63738 | 31476 ft | 471 kts | 4° |
| 2026-04-22 13:22 | -7.55786 | 116.64065 | 31724 ft | 472 kts | 11° |
| 2026-04-22 13:22 | -7.52639 | 116.64988 | 31988 ft | 472 kts | 22° |
| 2026-04-22 13:22 | -7.49721 | 116.66518 | 32216 ft | 474 kts | 34° |
| 2026-04-22 13:22 | -7.47972 | 116.67842 | 32359 ft | 475 kts | 41° |
| 2026-04-22 13:23 | -7.44988 | 116.71082 | 32631 ft | 477 kts | 51° |
| 2026-04-22 13:23 | -7.43588 | 116.72844 | 32755 ft | 478 kts | 52° |
| 2026-04-22 13:23 | -7.41514 | 116.75472 | 32928 ft | 480 kts | 51° |
| 2026-04-22 13:23 | -7.38718 | 116.78934 | 33119 ft | 482 kts | 50° |
| 2026-04-22 13:24 | -7.37270 | 116.80692 | 33213 ft | 483 kts | 50° |
| 2026-04-22 13:24 | -7.35111 | 116.83284 | 33328 ft | 484 kts | 50° |
| 2026-04-22 13:24 | -7.32936 | 116.85881 | 33472 ft | 484 kts | 50° |
| 2026-04-22 13:24 | -7.30759 | 116.88473 | 33635 ft | 484 kts | 50° |
| 2026-04-22 13:25 | -7.28579 | 116.91070 | 33810 ft | 484 kts | 50° |
| 2026-04-22 13:25 | -7.26405 | 116.93659 | 33960 ft | 484 kts | 50° |
| 2026-04-22 13:25 | -7.24236 | 116.96241 | 34108 ft | 483 kts | 50° |
| 2026-04-22 13:25 | -7.22091 | 116.98797 | 34249 ft | 483 kts | 50° |
| 2026-04-22 13:26 | -7.19921 | 117.01381 | 34409 ft | 482 kts | 50° |
| 2026-04-22 13:26 | -7.17754 | 117.03962 | 34550 ft | 482 kts | 50° |
| 2026-04-22 13:26 | -7.15588 | 117.06541 | 34708 ft | 482 kts | 50° |
| 2026-04-22 13:26 | -7.13423 | 117.09118 | 34863 ft | 481 kts | 50° |
| 2026-04-22 13:27 | -7.11257 | 117.11695 | 34912 ft | 481 kts | 50° |
| 2026-04-22 13:27 | -7.06940 | 117.16833 | 34913 ft | 481 kts | 50° |
| 2026-04-22 13:28 | -7.02618 | 117.21973 | 34917 ft | 481 kts | 50° |
| 2026-04-22 13:28 | -6.98285 | 117.27125 | 34917 ft | 481 kts | 50° |
| 2026-04-22 13:29 | -6.93952 | 117.32275 | 34918 ft | 482 kts | 50° |
| 2026-04-22 13:29 | -6.89619 | 117.37425 | 34916 ft | 482 kts | 50° |
| 2026-04-22 13:30 | -6.85281 | 117.42578 | 34912 ft | 482 kts | 50° |
| 2026-04-22 13:30 | -6.80975 | 117.47692 | 34909 ft | 482 kts | 50° |
| 2026-04-22 13:31 | -6.76603 | 117.52883 | 34915 ft | 483 kts | 50° |
| 2026-04-22 13:31 | -6.72290 | 117.58002 | 34913 ft | 483 kts | 50° |
| 2026-04-22 13:32 | -6.67898 | 117.63110 | 34915 ft | 483 kts | 46° |
| 2026-04-22 13:32 | -6.62977 | 117.67718 | 34914 ft | 483 kts | 43° |
| 2026-04-22 13:33 | -6.58012 | 117.72303 | 34914 ft | 484 kts | 43° |
| 2026-04-22 13:33 | -6.53051 | 117.76892 | 34914 ft | 484 kts | 43° |
| 2026-04-22 13:34 | -6.48086 | 117.81483 | 34916 ft | 485 kts | 43° |
| 2026-04-22 13:34 | -6.43115 | 117.86077 | 34916 ft | 485 kts | 43° |
| 2026-04-22 13:35 | -6.38141 | 117.90672 | 34915 ft | 486 kts | 43° |
| 2026-04-22 13:35 | -6.33163 | 117.95269 | 34919 ft | 486 kts | 43° |
| 2026-04-22 13:36 | -6.28182 | 117.99868 | 34915 ft | 486 kts | 43° |
| 2026-04-22 13:36 | -6.23195 | 118.04472 | 34918 ft | 486 kts | 43° |
| 2026-04-22 13:37 | -6.18210 | 118.09072 | 34914 ft | 486 kts | 43° |
| 2026-04-22 13:37 | -6.13228 | 118.13669 | 34913 ft | 486 kts | 43° |
| 2026-04-22 13:37 | -6.10736 | 118.15967 | 34758 ft | 486 kts | 43° |
| 2026-04-22 13:38 | -6.08247 | 118.18262 | 34276 ft | 486 kts | 43° |
| 2026-04-22 13:38 | -6.03237 | 118.22881 | 32211 ft | 489 kts | 43° |
| 2026-04-22 13:38 | -6.00728 | 118.25194 | 30765 ft | 487 kts | 43° |
| 2026-04-22 13:39 | -5.98257 | 118.27472 | 29600 ft | 477 kts | 43° |
| 2026-04-22 13:39 | -5.95836 | 118.29703 | 28667 ft | 466 kts | 43° |
| 2026-04-22 13:39 | -5.93481 | 118.31873 | 28020 ft | 451 kts | 43° |
| 2026-04-22 13:39 | -5.91198 | 118.33977 | 27664 ft | 442 kts | 43° |
| 2026-04-22 13:40 | -5.88910 | 118.36087 | 27417 ft | 452 kts | 43° |
| 2026-04-22 13:40 | -5.86587 | 118.38228 | 26945 ft | 453 kts | 43° |
| 2026-04-22 13:40 | -5.84265 | 118.40368 | 26224 ft | 451 kts | 43° |
| 2026-04-22 13:40 | -5.81967 | 118.42483 | 25577 ft | 445 kts | 43° |
| 2026-04-22 13:41 | -5.79705 | 118.44567 | 24968 ft | 436 kts | 43° |
| 2026-04-22 13:41 | -5.77490 | 118.46610 | 24363 ft | 428 kts | 43° |
| 2026-04-22 13:41 | -5.75317 | 118.48619 | 23769 ft | 420 kts | 43° |
| 2026-04-22 13:41 | -5.73186 | 118.50589 | 23473 ft | 411 kts | 43° |
| 2026-04-22 13:42 | -5.71052 | 118.52562 | 23350 ft | 425 kts | 43° |
| 2026-04-22 13:42 | -5.68868 | 118.54580 | 23232 ft | 425 kts | 43° |
| 2026-04-22 13:42 | -5.66702 | 118.56581 | 23127 ft | 423 kts | 43° |
| 2026-04-22 13:42 | -5.64532 | 118.58585 | 23014 ft | 422 kts | 43° |
| 2026-04-22 13:43 | -5.62366 | 118.60585 | 22923 ft | 422 kts | 43° |
| 2026-04-22 13:43 | -5.60208 | 118.62577 | 22911 ft | 422 kts | 43° |
| 2026-04-22 13:43 | -5.58046 | 118.64573 | 22894 ft | 421 kts | 43° |
| 2026-04-22 13:43 | -5.55897 | 118.66557 | 22501 ft | 420 kts | 43° |
| 2026-04-22 13:44 | -5.53742 | 118.68546 | 21700 ft | 423 kts | 43° |
| 2026-04-22 13:44 | -5.51563 | 118.70556 | 20582 ft | 426 kts | 43° |
| 2026-04-22 13:44 | -5.49379 | 118.72572 | 19479 ft | 424 kts | 43° |
| 2026-04-22 13:44 | -5.47221 | 118.74562 | 18463 ft | 417 kts | 43° |
| 2026-04-22 13:45 | -5.45103 | 118.76516 | 17279 ft | 411 kts | 43° |
| 2026-04-22 13:45 | -5.43014 | 118.78443 | 16146 ft | 404 kts | 43° |
| 2026-04-22 13:45 | -5.41133 | 118.80489 | 15141 ft | 394 kts | 56° |
| 2026-04-22 13:45 | -5.39918 | 118.82843 | 14931 ft | 372 kts | 69° |
| 2026-04-22 13:46 | -5.39293 | 118.85360 | 14742 ft | 373 kts | 80° |
| 2026-04-22 13:46 | -5.38861 | 118.87926 | 14301 ft | 373 kts | 80° |
| 2026-04-22 13:46 | -5.38418 | 118.90505 | 13497 ft | 378 kts | 80° |
| 2026-04-22 13:46 | -5.37964 | 118.93124 | 12346 ft | 380 kts | 80° |
| 2026-04-22 13:47 | -5.37513 | 118.95723 | 11283 ft | 376 kts | 80° |
| 2026-04-22 13:47 | -5.37066 | 118.98293 | 10393 ft | 369 kts | 80° |
| 2026-04-22 13:47 | -5.36640 | 119.00739 | 10079 ft | 343 kts | 80° |
| 2026-04-22 13:47 | -5.36244 | 119.03007 | 9841 ft | 317 kts | 80° |
| 2026-04-22 13:48 | -5.35877 | 119.05112 | 9548 ft | 298 kts | 80° |
| 2026-04-22 13:48 | -5.35523 | 119.07138 | 9064 ft | 292 kts | 80° |
| 2026-04-22 13:48 | -5.35180 | 119.09105 | 8801 ft | 282 kts | 80° |
| 2026-04-22 13:48 | -5.34836 | 119.11073 | 8687 ft | 288 kts | 80° |
| 2026-04-22 13:49 | -5.34493 | 119.13041 | 8580 ft | 284 kts | 80° |
| 2026-04-22 13:49 | -5.34160 | 119.14954 | 8484 ft | 271 kts | 80° |
| 2026-04-22 13:49 | -5.33843 | 119.16767 | 8362 ft | 255 kts | 80° |
| 2026-04-22 13:49 | -5.33549 | 119.18458 | 8110 ft | 240 kts | 80° |
| 2026-04-22 13:50 | -5.33356 | 119.19559 | 7910 ft | 232 kts | 80° |
| 2026-04-22 13:50 | -5.33007 | 119.21557 | 7729 ft | 208 kts | 80° |
| 2026-04-22 13:50 | -5.32759 | 119.22974 | 7474 ft | 201 kts | 80° |
| 2026-04-22 13:50 | -5.32519 | 119.24353 | 7144 ft | 200 kts | 80° |
| 2026-04-22 13:51 | -5.32279 | 119.25728 | 6825 ft | 200 kts | 80° |
| 2026-04-22 13:51 | -5.32043 | 119.27083 | 6577 ft | 199 kts | 80° |
| 2026-04-22 13:51 | -5.31805 | 119.28445 | 6336 ft | 198 kts | 80° |
| 2026-04-22 13:51 | -5.31565 | 119.29818 | 6060 ft | 197 kts | 80° |
| 2026-04-22 13:52 | -5.31329 | 119.31171 | 5795 ft | 197 kts | 81° |
| 2026-04-22 13:52 | -5.31095 | 119.32509 | 5546 ft | 196 kts | 81° |
| 2026-04-22 13:52 | -5.30858 | 119.33866 | 5295 ft | 196 kts | 81° |
| 2026-04-22 13:52 | -5.30624 | 119.35208 | 5048 ft | 194 kts | 81° |
| 2026-04-22 13:53 | -5.30392 | 119.36535 | 4752 ft | 193 kts | 81° |
| 2026-04-22 13:53 | -5.30160 | 119.37861 | 4419 ft | 193 kts | 81° |
| 2026-04-22 13:53 | -5.29928 | 119.39191 | 4161 ft | 193 kts | 81° |
| 2026-04-22 13:53 | -5.29699 | 119.40500 | 4034 ft | 189 kts | 81° |
| 2026-04-22 13:54 | -5.29407 | 119.41814 | 3988 ft | 194 kts | 70° |
| 2026-04-22 13:54 | -5.28661 | 119.42927 | 3997 ft | 195 kts | 45° |
| 2026-04-22 13:54 | -5.27577 | 119.43755 | 3949 ft | 197 kts | 33° |
| 2026-04-22 13:54 | -5.26407 | 119.44437 | 3772 ft | 193 kts | 29° |
| 2026-04-22 13:55 | -5.25247 | 119.45099 | 3514 ft | 190 kts | 31° |
| 2026-04-22 13:55 | -5.24109 | 119.45763 | 3281 ft | 188 kts | 30° |
| 2026-04-22 13:55 | -5.22980 | 119.46418 | 3036 ft | 186 kts | 31° |
| 2026-04-22 13:55 | -5.21869 | 119.47064 | 2796 ft | 184 kts | 31° |
| 2026-04-22 13:56 | -5.20765 | 119.47706 | 2560 ft | 182 kts | 30° |
| 2026-04-22 13:56 | -5.20029 | 119.48133 | 2404 ft | 181 kts | 30° |
| 2026-04-22 13:56 | -5.18956 | 119.48756 | 2169 ft | 173 kts | 30° |
| 2026-04-22 13:56 | -5.17936 | 119.49349 | 1951 ft | 168 kts | 30° |
| 2026-04-22 13:57 | -5.16923 | 119.49936 | 1745 ft | 164 kts | 30° |
| 2026-04-22 13:57 | -5.15956 | 119.50498 | 1522 ft | 151 kts | 31° |
| 2026-04-22 13:57 | -5.15035 | 119.51033 | 1341 ft | 155 kts | 31° |
| 2026-04-22 13:57 | -5.14128 | 119.51559 | 1156 ft | 149 kts | 31° |
| 2026-04-22 13:58 | -5.13218 | 119.52087 | 964 ft | 148 kts | 31° |
| 2026-04-22 13:58 | -5.12327 | 119.52604 | 787 ft | 151 kts | 31° |
| 2026-04-22 13:58 | -5.11663 | 119.52990 | 640 ft | 142 kts | 31° |
| 2026-04-22 13:58 | -5.10786 | 119.53499 | 429 ft | 150 kts | 31° |
| 2026-04-22 13:59 | -5.09906 | 119.54010 | 244 ft | 144 kts | 31° |
| 2026-04-22 13:59 | -5.09014 | 119.54536 | 47 ft | 146 kts | 31° |
| 2026-04-22 13:59 | -5.08313 | 119.54935 | 45 ft | 89 kts | 30° |
| 2026-04-22 13:59 | -5.07924 | 119.55162 | 47 ft | 56 kts | 30° |
| 2026-04-22 14:00 | -5.07605 | 119.55345 | 47 ft | 50 kts | 28° |
| 2026-04-22 14:00 | -5.07337 | 119.55428 | 46 ft | 11 kts | 1° |
| 2026-04-22 14:00 | -5.07303 | 119.55428 | 46 ft | 5 kts | 0° |
| 2026-04-22 14:00 | -5.07258 | 119.55428 | 46 ft | 7 kts | 0° |
| 2026-04-22 14:01 | -5.07214 | 119.55409 | 44 ft | 7 kts | 315° |
| 2026-04-22 14:01 | -5.07220 | 119.55370 | 47 ft | 5 kts | 231° |
| 2026-04-22 14:01 | -5.07254 | 119.55341 | 47 ft | 7 kts | 217° |
| 2026-04-22 14:01 | -5.07302 | 119.55310 | 47 ft | 9 kts | 211° |
| 2026-04-22 14:02 | -5.07364 | 119.55273 | 47 ft | 11 kts | 210° |
| 2026-04-22 14:02 | -5.07437 | 119.55231 | 47 ft | 13 kts | 210° |
| 2026-04-22 14:02 | -5.07521 | 119.55183 | 47 ft | 15 kts | 209° |
| 2026-04-22 14:02 | -5.07615 | 119.55130 | 47 ft | 16 kts | 209° |
| 2026-04-22 14:03 | -5.07717 | 119.55072 | 47 ft | 18 kts | 209° |
| 2026-04-22 14:03 | -5.07828 | 119.55009 | 47 ft | 19 kts | 210° |
| 2026-04-22 14:03 | -5.07925 | 119.54953 | 47 ft | 7 kts | 210° |
| 2026-04-22 14:03 | -5.07970 | 119.54927 | 47 ft | 9 kts | 210° |
| 2026-04-22 14:04 | -5.07983 | 119.54919 | 47 ft | 0 kts | 210° |
| 2026-04-22 14:05 | -5.07989 | 119.54916 | 47 ft | 3 kts | 210° |
| 2026-04-22 14:05 | -5.08028 | 119.54892 | 47 ft | 10 kts | 214° |
| 2026-04-22 14:05 | -5.08030 | 119.54782 | 47 ft | 3 kts | 300° |
| 2026-04-22 14:06 | -5.08016 | 119.54758 | 47 ft | 5 kts | 300° |
| 2026-04-22 14:06 | -5.07988 | 119.54730 | 47 ft | 6 kts | 333° |
| 2026-04-22 14:06 | -5.07956 | 119.54738 | 47 ft | 5 kts | 22° |
| 2026-04-22 14:06 | -5.07917 | 119.54756 | 47 ft | 7 kts | 26° |
| 2026-04-22 14:07 | -5.07868 | 119.54784 | 47 ft | 9 kts | 29° |
| 2026-04-22 14:07 | -5.07836 | 119.54801 | 47 ft | 0 kts | 29° |
| 2026-04-22 14:07 | -5.07831 | 119.54804 | 47 ft | 4 kts | 29° |
| 2026-04-22 14:07 | -5.07804 | 119.54801 | 47 ft | 3 kts | 338° |
| 2026-04-22 14:08 | -5.07782 | 119.54776 | 47 ft | 6 kts | 307° |
| 2026-04-22 14:08 | -5.07779 | 119.54772 | 47 ft | 0 kts | 306° |
| 2026-04-22 14:08 | -5.07777 | 119.54769 | 47 ft | 2 kts | 306° |
| 2026-04-22 14:08 | -5.07766 | 119.54752 | 47 ft | 3 kts | 302° |
| 2026-04-22 14:09 | -5.07763 | 119.54747 | 47 ft | 0 kts | 302° |
| 2026-04-22 14:09 | -5.07763 | 119.54746 | 47 ft | 0 kts | 302° |
| 2026-04-22 14:09 | -5.07762 | 119.54746 | 47 ft | 0 kts | 302° |
| 2026-04-22 14:09 | -5.07762 | 119.54745 | 47 ft | 0 kts | 302° |
| 2026-04-22 14:10 | -5.07763 | 119.54746 | 47 ft | 0 kts | 302° |